Time;durP1;ratioP1;P1;durP2;ratioP2;P2;SDS_P1;SDS_P2;PMS_P1;PMS_P2;Temp;Humidity;BMP_temperature;BMP_pressure;BME280_temperature;BME280_humidity;BME280_pressure;Samples;Min_cycle;Max_cycle;Signal;HPM_P1;HPM_P2
2022/04/05 00:00:40;;;;;;;12.57;9.95;;;;;;;;;;4975826;28;20485;-87
2022/04/05 00:03:06;;;;;;;11.73;9.38;;;;;;;;;;4966215;28;20145;-86
2022/04/05 00:05:31;;;;;;;11.63;9.70;;;;;;;;;;4976173;28;20397;-86
2022/04/05 00:07:56;;;;;;;11.98;10.10;;;;;;;;;;4970919;28;20061;-86
2022/04/05 00:10:22;;;;;;;12.75;10.35;;;;;;;;;;4960526;28;20124;-87
2022/04/05 00:12:47;;;;;;;11.75;9.45;;;;;;;;;;4978719;28;20043;-87
2022/04/05 00:15:13;;;;;;;13.20;10.38;;;;;;;;;;4983151;28;20072;-86
2022/04/05 00:17:38;;;;;;;12.27;10.23;;;;;;;;;;4977592;28;20054;-86
2022/04/05 00:20:05;;;;;;;11.68;9.93;;;;;;;;;;4974132;28;20038;-84
2022/04/05 00:22:30;;;;;;;12.32;10.25;;;;;;;;;;4983932;28;20038;-85
2022/04/05 00:24:55;;;;;;;14.13;10.57;;;;;;;;;;4980211;28;20042;-84
2022/04/05 00:27:21;;;;;;;12.07;9.70;;;;;;;;;;4980109;28;20094;-86
2022/04/05 00:29:46;;;;;;;11.52;9.82;;;;;;;;;;4985878;28;20852;-86
2022/04/05 00:32:12;;;;;;;13.57;10.20;;;;;;;;;;4978637;28;20486;-86
2022/04/05 00:34:38;;;;;;;12.10;9.85;;;;;;;;;;4978763;28;20058;-85
2022/04/05 00:37:04;;;;;;;12.85;9.65;;;;;;;;;;4981988;28;20034;-85
2022/04/05 00:39:32;;;;;;;12.82;9.30;;;;;;;;;;4971590;28;20429;-85
2022/04/05 00:41:57;;;;;;;12.70;8.55;;;;;;;;;;4986644;28;20038;-84
2022/04/05 00:44:23;;;;;;;12.52;7.97;;;;;;;;;;4982412;28;20565;-87
2022/04/05 00:46:52;;;;;;;11.02;7.20;;;;;;;;;;4971204;28;20517;-86
2022/04/05 00:49:26;;;;;;;10.90;7.20;;;;;;;;;;4978373;28;20110;-86
2022/04/05 00:51:52;;;;;;;9.35;6.03;;;;;;;;;;4975478;28;20070;-86
2022/04/05 00:54:17;;;;;;;13.88;5.45;;;;;;;;;;4975598;28;20513;-85
2022/04/05 00:56:43;;;;;;;11.70;4.70;;;;;;;;;;4975991;28;20045;-85
2022/04/05 00:59:09;;;;;;;10.35;4.40;;;;;;;;;;4962842;28;20142;-85
2022/04/05 01:01:36;;;;;;;9.27;4.13;;;;;;;;;;4979235;28;20103;-86
2022/04/05 01:04:02;;;;;;;7.73;4.30;;;;;;;;;;4986421;28;20442;-85
2022/04/05 01:06:34;;;;;;;8.73;4.00;;;;;;;;;;4978463;28;20074;-84
2022/04/05 01:09:00;;;;;;;10.15;4.55;;;;;;;;;;4982691;28;20038;-86
2022/04/05 01:11:25;;;;;;;11.00;4.18;;;;;;;;;;4968063;28;20034;-86
2022/04/05 01:13:52;;;;;;;9.65;3.75;;;;;;;;;;4977568;28;20039;-86
2022/04/05 01:16:21;;;;;;;11.00;3.88;;;;;;;;;;4978451;28;20468;-86
2022/04/05 01:18:47;;;;;;;8.13;3.95;;;;;;;;;;4976003;28;20049;-84
2022/04/05 01:21:14;;;;;;;7.93;3.60;;;;;;;;;;4978325;28;20081;-86
2022/04/05 01:23:44;;;;;;;7.30;3.47;;;;;;;;;;4970481;28;20575;-85
2022/04/05 01:26:09;;;;;;;9.80;3.85;;;;;;;;;;4981166;28;20035;-85
2022/04/05 01:28:35;;;;;;;10.85;3.90;;;;;;;;;;4971692;28;20034;-85
2022/04/05 01:31:01;;;;;;;9.43;3.75;;;;;;;;;;4980754;28;20045;-85
2022/04/05 01:33:26;;;;;;;8.10;3.53;;;;;;;;;;4981652;28;20081;-85
2022/04/05 01:35:52;;;;;;;7.70;3.67;;;;;;;;;;4960150;28;20046;-85
2022/04/05 01:38:17;;;;;;;9.10;3.50;;;;;;;;;;4970499;28;20887;-85
2022/04/05 01:40:42;;;;;;;8.75;3.90;;;;;;;;;;4977178;28;20051;-85
2022/04/05 01:43:08;;;;;;;12.63;4.03;;;;;;;;;;4968270;28;20043;-85
2022/04/05 01:45:34;;;;;;;11.05;3.42;;;;;;;;;;4975657;28;20066;-85
2022/04/05 01:48:00;;;;;;;8.63;2.60;;;;;;;;;;4978407;28;20043;-86
2022/04/05 01:50:25;;;;;;;7.25;2.45;;;;;;;;;;4964360;28;20120;-85
2022/04/05 01:52:50;;;;;;;9.13;2.30;;;;;;;;;;4976338;28;20118;-85
2022/04/05 01:55:15;;;;;;;12.05;2.72;;;;;;;;;;4981956;28;20046;-85
2022/04/05 01:57:41;;;;;;;8.10;2.50;;;;;;;;;;4959801;28;20414;-85
2022/04/05 02:00:14;;;;;;;6.57;2.63;;;;;;;;;;4977549;28;20105;-86
2022/04/05 02:02:40;;;;;;;10.50;2.25;;;;;;;;;;4984578;28;20050;-85
2022/04/05 02:05:06;;;;;;;7.97;2.00;;;;;;;;;;4978924;28;20414;-85
2022/04/05 02:07:31;;;;;;;7.13;1.80;;;;;;;;;;4986029;28;20042;-87
2022/04/05 02:09:56;;;;;;;7.88;2.00;;;;;;;;;;4978928;28;20065;-86
2022/04/05 02:12:21;;;;;;;6.90;1.88;;;;;;;;;;4975638;28;20037;-86
2022/04/05 02:14:47;;;;;;;6.57;2.20;;;;;;;;;;4969154;28;20093;-86
2022/04/05 02:17:12;;;;;;;6.90;1.77;;;;;;;;;;4977242;28;20572;-87
2022/04/05 02:19:38;;;;;;;6.80;1.60;;;;;;;;;;4961061;28;20122;-86
2022/04/05 02:22:04;;;;;;;5.65;1.63;;;;;;;;;;4979966;28;20044;-86
2022/04/05 02:24:29;;;;;;;6.40;1.80;;;;;;;;;;4974180;28;20516;-86
2022/04/05 02:26:55;;;;;;;9.50;2.03;;;;;;;;;;4975200;28;20046;-87
2022/04/05 02:29:20;;;;;;;9.00;2.53;;;;;;;;;;4973825;28;20535;-87
2022/04/05 02:31:48;;;;;;;7.60;1.90;;;;;;;;;;4981592;28;20125;-86
2022/04/05 02:34:14;;;;;;;6.05;1.63;;;;;;;;;;4970218;28;20041;-88
2022/04/05 02:36:39;;;;;;;7.13;1.42;;;;;;;;;;4973754;28;20039;-87
2022/04/05 02:39:06;;;;;;;8.07;1.58;;;;;;;;;;4976092;28;20039;-87
2022/04/05 02:41:31;;;;;;;7.35;1.65;;;;;;;;;;4966088;28;20577;-87
2022/04/05 02:43:58;;;;;;;7.57;1.40;;;;;;;;;;4979681;28;20066;-87
2022/04/05 02:46:24;;;;;;;9.32;1.70;;;;;;;;;;4977631;28;20043;-87
2022/04/05 02:48:53;;;;;;;7.22;1.50;;;;;;;;;;4983806;28;20035;-87
2022/04/05 02:51:18;;;;;;;9.32;1.70;;;;;;;;;;4990549;28;20087;-83
2022/04/05 02:53:43;;;;;;;8.90;1.55;;;;;;;;;;4981419;28;20038;-82
2022/04/05 02:56:09;;;;;;;9.80;1.63;;;;;;;;;;4966334;28;20505;-83
2022/04/05 02:58:35;;;;;;;8.30;1.60;;;;;;;;;;4980658;28;20039;-84
2022/04/05 03:01:00;;;;;;;8.35;1.52;;;;;;;;;;4972928;28;20050;-83
2022/04/05 03:03:32;;;;;;;8.35;1.40;;;;;;;;;;4976485;28;20482;-83
2022/04/05 03:05:58;;;;;;;6.10;1.48;;;;;;;;;;4972861;28;20042;-83
2022/04/05 03:08:23;;;;;;;9.27;1.58;;;;;;;;;;4981191;28;20038;-83
2022/04/05 03:10:49;;;;;;;6.07;1.30;;;;;;;;;;4959025;28;20039;-83
2022/04/05 03:13:14;;;;;;;7.78;1.88;;;;;;;;;;4974340;28;20035;-83
2022/04/05 03:15:40;;;;;;;7.32;1.73;;;;;;;;;;4972611;28;20466;-83
2022/04/05 03:18:05;;;;;;;9.63;1.63;;;;;;;;;;4972957;28;20487;-83
2022/04/05 03:20:31;;;;;;;8.25;1.33;;;;;;;;;;4972880;28;20074;-82
2022/04/05 03:22:59;;;;;;;7.18;1.50;;;;;;;;;;4972968;28;20930;-82
2022/04/05 03:25:24;;;;;;;8.40;1.80;;;;;;;;;;4972486;28;20086;-82
2022/04/05 03:27:49;;;;;;;7.97;1.67;;;;;;;;;;4968393;28;20038;-82
2022/04/05 03:30:16;;;;;;;11.85;1.60;;;;;;;;;;4963152;28;20035;-82
2022/04/05 03:32:41;;;;;;;5.32;1.40;;;;;;;;;;4978679;28;20457;-83
2022/04/05 03:35:07;;;;;;;10.18;1.73;;;;;;;;;;4968053;28;20035;-83
2022/04/05 03:37:33;;;;;;;7.15;1.35;;;;;;;;;;4983063;28;20039;-81
2022/04/05 03:39:59;;;;;;;7.40;1.55;;;;;;;;;;4966089;28;20457;-82
2022/04/05 03:42:24;;;;;;;7.72;1.48;;;;;;;;;;4976525;28;20497;-82
2022/04/05 03:44:50;;;;;;;6.78;1.27;;;;;;;;;;4962080;28;20042;-82
2022/04/05 03:47:15;;;;;;;6.65;1.33;;;;;;;;;;4978524;28;20042;-82
2022/04/05 03:49:47;;;;;;;3.90;1.05;;;;;;;;;;4979531;28;20030;-84
2022/04/05 03:52:12;;;;;;;9.38;1.67;;;;;;;;;;4977537;28;20045;-83
2022/04/05 03:54:37;;;;;;;6.85;1.50;;;;;;;;;;4985809;28;20385;-82
2022/04/05 03:57:03;;;;;;;8.82;1.70;;;;;;;;;;4977263;28;20390;-82
2022/04/05 03:59:28;;;;;;;8.82;1.50;;;;;;;;;;4984854;28;20458;-82
2022/04/05 04:01:54;;;;;;;8.77;1.58;;;;;;;;;;4975613;28;20041;-83
2022/04/05 04:04:19;;;;;;;8.35;1.45;;;;;;;;;;4982338;28;20050;-83
2022/04/05 04:06:44;;;;;;;8.02;1.60;;;;;;;;;;4976728;28;20046;-83
2022/04/05 04:09:11;;;;;;;7.55;1.42;;;;;;;;;;4980403;28;20053;-85
2022/04/05 04:11:37;;;;;;;12.17;1.73;;;;;;;;;;4975488;28;20513;-85
2022/04/05 04:14:02;;;;;;;10.80;1.52;;;;;;;;;;4975742;28;20038;-84
2022/04/05 04:16:28;;;;;;;11.07;2.00;;;;;;;;;;4976284;28;20042;-83
2022/04/05 04:18:53;;;;;;;8.10;1.70;;;;;;;;;;4969025;28;20051;-83
2022/04/05 04:21:18;;;;;;;9.77;1.65;;;;;;;;;;4974469;28;20506;-84
2022/04/05 04:23:44;;;;;;;9.52;1.45;;;;;;;;;;4977300;28;20169;-83
2022/04/05 04:26:10;;;;;;;9.80;1.73;;;;;;;;;;4980446;28;20494;-83
2022/04/05 04:28:35;;;;;;;7.43;1.52;;;;;;;;;;4976728;28;20033;-81
2022/04/05 04:31:00;;;;;;;7.18;1.90;;;;;;;;;;4975933;28;20031;-83
2022/04/05 04:33:25;;;;;;;10.88;1.90;;;;;;;;;;4975458;28;20054;-82
2022/04/05 04:35:51;;;;;;;10.38;1.65;;;;;;;;;;4976739;28;20065;-84
2022/04/05 04:38:16;;;;;;;8.07;1.67;;;;;;;;;;4976769;28;20084;-84
2022/04/05 04:40:50;;;;;;;9.85;1.90;;;;;;;;;;4958039;28;20046;-82
2022/04/05 04:43:16;;;;;;;13.23;2.80;;;;;;;;;;4959933;28;20457;-82
2022/04/05 04:45:41;;;;;;;9.00;1.85;;;;;;;;;;4958889;28;20034;-82
2022/04/05 04:48:07;;;;;;;12.07;1.85;;;;;;;;;;4985193;28;20053;-83
2022/04/05 04:50:32;;;;;;;9.07;2.08;;;;;;;;;;4980716;28;20073;-86
2022/04/05 04:52:57;;;;;;;13.43;2.08;;;;;;;;;;4976482;28;20034;-84
2022/04/05 04:55:24;;;;;;;9.48;1.80;;;;;;;;;;4977072;28;20094;-84
2022/04/05 04:57:50;;;;;;;10.68;2.47;;;;;;;;;;4974845;28;20038;-85
2022/04/05 05:00:17;;;;;;;9.40;2.33;;;;;;;;;;4973759;28;20054;-84
2022/04/05 05:02:46;;;;;;;14.90;2.60;;;;;;;;;;4976782;28;20042;-86
2022/04/05 05:05:12;;;;;;;9.02;2.10;;;;;;;;;;4975218;28;20752;-85
2022/04/05 05:07:37;;;;;;;11.93;2.30;;;;;;;;;;4974699;28;20046;-86
2022/04/05 05:10:05;;;;;;;10.35;2.30;;;;;;;;;;4976031;28;20038;-85
2022/04/05 05:12:33;;;;;;;;;;;;;;;;;;4977222;28;20041;-85
2022/04/05 05:14:59;;;;;;;12.15;2.47;;;;;;;;;;4965412;28;20445;-85
2022/04/05 05:17:24;;;;;;;10.75;2.25;;;;;;;;;;4972556;28;20039;-84
2022/04/05 05:19:49;;;;;;;9.85;2.10;;;;;;;;;;4978234;28;20092;-87
2022/04/05 05:22:14;;;;;;;8.20;2.17;;;;;;;;;;4981846;28;20035;-87
2022/04/05 05:24:40;;;;;;;12.27;2.20;;;;;;;;;;4975701;28;20041;-86
2022/04/05 05:27:05;;;;;;;10.68;2.42;;;;;;;;;;4975937;28;20105;-86
2022/04/05 05:29:30;;;;;;;10.98;2.47;;;;;;;;;;4976025;28;20031;-86
2022/04/05 05:31:58;;;;;;;10.75;2.25;;;;;;;;;;4964809;28;20818;-87
2022/04/05 05:34:24;;;;;;;10.23;2.50;;;;;;;;;;4990075;28;20125;-84
2022/04/05 05:36:50;;;;;;;13.23;2.35;;;;;;;;;;4973615;28;20046;-84
2022/04/05 05:39:15;;;;;;;9.52;1.85;;;;;;;;;;4976880;28;20042;-84
2022/04/05 05:41:40;;;;;;;8.27;1.90;;;;;;;;;;4976495;28;20482;-83
2022/04/05 05:44:06;;;;;;;12.65;2.70;;;;;;;;;;4966448;28;20042;-85
2022/04/05 05:46:31;;;;;;;10.40;2.20;;;;;;;;;;4975308;28;20026;-85
2022/04/05 05:48:56;;;;;;;7.63;2.30;;;;;;;;;;4980185;28;20045;-84
2022/04/05 05:51:22;;;;;;;9.75;2.05;;;;;;;;;;4975125;28;20889;-85
2022/04/05 05:53:47;;;;;;;20.67;3.70;;;;;;;;;;4960084;28;20517;-86
2022/04/05 05:56:12;;;;;;;10.75;2.30;;;;;;;;;;4974400;28;20151;-85
2022/04/05 05:58:38;;;;;;;10.52;2.42;;;;;;;;;;4982194;28;21058;-85
2022/04/05 06:01:03;;;;;;;15.40;2.78;;;;;;;;;;4974121;28;20045;-86
2022/04/05 06:03:34;;;;;;;12.45;3.35;;;;;;;;;;4975135;28;20172;-85
2022/04/05 06:05:59;;;;;;;11.43;2.65;;;;;;;;;;4973590;28;20077;-84
2022/04/05 06:08:25;;;;;;;12.70;2.40;;;;;;;;;;4974881;28;20058;-86
2022/04/05 06:10:50;;;;;;;8.40;2.17;;;;;;;;;;4974146;28;20046;-85
2022/04/05 06:13:16;;;;;;;11.63;2.13;;;;;;;;;;4975489;28;20062;-85
2022/04/05 06:15:41;;;;;;;11.40;2.13;;;;;;;;;;4971605;28;20042;-84
2022/04/05 06:18:06;;;;;;;9.48;1.90;;;;;;;;;;4974211;28;20053;-86
2022/04/05 06:20:32;;;;;;;7.55;2.08;;;;;;;;;;4965790;28;20125;-86
2022/04/05 06:22:59;;;;;;;10.90;1.73;;;;;;;;;;4973480;28;20045;-86
2022/04/05 06:25:35;;;;;;;10.68;1.85;;;;;;;;;;4973809;28;20034;-84
2022/04/05 06:28:07;;;;;;;10.20;1.63;;;;;;;;;;4966362;28;20078;-86
2022/04/05 06:30:34;;;;;;;8.25;1.60;;;;;;;;;;4972108;28;20379;-86
2022/04/05 06:33:12;;;;;;;8.90;2.13;;;;;;;;;;4972847;28;20038;-85
2022/04/05 06:35:40;;;;;;;9.77;2.42;;;;;;;;;;4981050;28;20065;-85
2022/04/05 06:38:05;;;;;;;11.27;1.85;;;;;;;;;;4991109;28;20034;-85
2022/04/05 06:40:31;;;;;;;7.97;1.70;;;;;;;;;;4976945;28;20393;-85
2022/04/05 06:42:56;;;;;;;7.15;1.65;;;;;;;;;;4965115;28;20066;-85
2022/04/05 06:45:24;;;;;;;9.32;2.00;;;;;;;;;;4959956;28;20089;-86
2022/04/05 06:47:49;;;;;;;8.65;1.60;;;;;;;;;;4973749;28;20401;-85
2022/04/05 06:50:20;;;;;;;8.13;1.85;;;;;;;;;;4975998;28;20039;-85
2022/04/05 06:52:45;;;;;;;9.25;1.70;;;;;;;;;;4973551;28;20581;-85
2022/04/05 06:55:11;;;;;;;8.57;1.85;;;;;;;;;;4980216;28;20042;-85
2022/04/05 06:57:37;;;;;;;9.27;1.80;;;;;;;;;;4965931;28;20035;-85
2022/04/05 07:00:07;;;;;;;8.65;1.67;;;;;;;;;;4971921;28;20133;-85
2022/04/05 07:02:33;;;;;;;7.10;1.30;;;;;;;;;;4965532;28;20038;-85
2022/04/05 07:04:58;;;;;;;8.00;1.60;;;;;;;;;;4974558;28;20037;-85
2022/04/05 07:07:23;;;;;;;7.55;1.60;;;;;;;;;;4973898;28;20457;-85
2022/04/05 07:09:48;;;;;;;7.30;1.40;;;;;;;;;;4980916;28;20049;-85
2022/04/05 07:12:14;;;;;;;9.10;2.17;;;;;;;;;;4975865;28;20398;-85
2022/04/05 07:14:39;;;;;;;6.22;1.60;;;;;;;;;;4982441;28;20391;-86
2022/04/05 07:17:04;;;;;;;7.60;1.42;;;;;;;;;;4974170;28;20042;-85
2022/04/05 07:19:39;;;;;;;8.68;1.35;;;;;;;;;;4973799;28;20752;-86
2022/04/05 07:22:05;;;;;;;11.35;1.60;;;;;;;;;;4974208;28;20035;-86
2022/04/05 07:24:30;;;;;;;3.92;1.00;;;;;;;;;;4975402;28;20105;-84
2022/04/05 07:26:56;;;;;;;8.00;1.02;;;;;;;;;;4971034;28;20041;-85
2022/04/05 07:29:21;;;;;;;5.38;1.15;;;;;;;;;;4974624;28;20482;-85
2022/04/05 07:31:46;;;;;;;8.57;1.23;;;;;;;;;;4978338;28;20043;-85
2022/04/05 07:34:12;;;;;;;4.90;1.00;;;;;;;;;;4977653;28;20039;-85
2022/04/05 07:36:37;;;;;;;5.30;1.10;;;;;;;;;;4974403;28;20034;-85
2022/04/05 07:39:06;;;;;;;6.05;0.90;;;;;;;;;;4975809;28;20047;-85
2022/04/05 07:41:31;;;;;;;7.63;1.10;;;;;;;;;;4981225;28;20057;-86
2022/04/05 07:43:57;;;;;;;7.47;1.35;;;;;;;;;;4963473;28;20066;-84
2022/04/05 07:46:22;;;;;;;7.20;1.13;;;;;;;;;;4974270;28;20052;-84
2022/04/05 07:48:47;;;;;;;5.97;1.00;;;;;;;;;;4974445;28;20046;-85
2022/04/05 07:51:16;;;;;;;7.63;1.30;;;;;;;;;;4981506;28;20046;-85
2022/04/05 07:53:42;;;;;;;4.90;1.20;;;;;;;;;;4973952;28;20058;-84
2022/04/05 07:56:08;;;;;;;4.43;1.10;;;;;;;;;;4974662;28;20034;-85
2022/04/05 07:58:33;;;;;;;7.65;1.30;;;;;;;;;;4964424;28;20050;-87
2022/04/05 08:01:04;;;;;;;5.30;1.20;;;;;;;;;;4976228;28;20035;-84
2022/04/05 08:03:30;;;;;;;5.10;1.00;;;;;;;;;;4965714;28;20041;-86
2022/04/05 08:05:55;;;;;;;6.70;1.30;;;;;;;;;;4973937;28;20046;-85
2022/04/05 08:08:20;;;;;;;8.27;1.40;;;;;;;;;;4975494;28;20038;-85
2022/04/05 08:10:46;;;;;;;7.13;1.20;;;;;;;;;;4971867;28;20073;-85
2022/04/05 08:13:11;;;;;;;5.75;1.13;;;;;;;;;;4977566;28;20378;-84
2022/04/05 08:15:39;;;;;;;8.32;1.38;;;;;;;;;;4968580;28;20169;-85
2022/04/05 08:18:05;;;;;;;8.48;1.00;;;;;;;;;;4977510;28;20093;-85
2022/04/05 08:20:36;;;;;;;6.97;1.02;;;;;;;;;;4977761;28;20350;-85
2022/04/05 08:23:03;;;;;;;7.35;1.00;;;;;;;;;;4984687;28;20754;-84
2022/04/05 08:25:28;;;;;;;6.60;1.20;;;;;;;;;;4976907;28;20034;-84
2022/04/05 08:27:57;;;;;;;5.43;1.38;;;;;;;;;;4974989;28;20046;-84
2022/04/05 08:30:23;;;;;;;7.22;1.30;;;;;;;;;;4976860;28;20113;-84
2022/04/05 08:32:48;;;;;;;7.22;1.17;;;;;;;;;;4959203;28;20042;-85
2022/04/05 08:35:18;;;;;;;8.82;1.60;;;;;;;;;;4967294;28;20076;-84
2022/04/05 08:37:45;;;;;;;5.80;1.15;;;;;;;;;;4976872;28;20047;-86
2022/04/05 08:40:13;;;;;;;5.93;1.00;;;;;;;;;;4977633;28;20508;-85
2022/04/05 08:42:41;;;;;;;6.95;1.02;;;;;;;;;;4967628;28;20042;-84
2022/04/05 08:45:12;;;;;;;3.65;1.00;;;;;;;;;;4990162;28;20133;-85
2022/04/05 08:47:46;;;;;;;5.72;1.27;;;;;;;;;;4976337;28;20035;-85
2022/04/05 08:50:13;;;;;;;5.53;1.17;;;;;;;;;;4979816;28;20039;-84
2022/04/05 08:52:38;;;;;;;7.38;1.17;;;;;;;;;;4967737;28;20030;-86
2022/04/05 08:55:04;;;;;;;5.95;0.90;;;;;;;;;;4975350;28;20039;-84
2022/04/05 08:57:29;;;;;;;5.22;1.30;;;;;;;;;;4977101;28;20039;-84
2022/04/05 08:59:55;;;;;;;5.63;1.20;;;;;;;;;;4977980;28;20054;-83
2022/04/05 09:02:24;;;;;;;5.65;1.08;;;;;;;;;;4972020;28;20074;-85
2022/04/05 09:04:50;;;;;;;4.03;0.90;;;;;;;;;;4976413;28;20057;-85
2022/04/05 09:07:19;;;;;;;5.07;1.10;;;;;;;;;;4975370;28;20042;-86
2022/04/05 09:09:45;;;;;;;7.35;1.40;;;;;;;;;;4976394;28;20061;-86
2022/04/05 09:12:17;;;;;;;7.63;1.30;;;;;;;;;;4974469;28;20398;-86
2022/04/05 09:14:42;;;;;;;9.90;1.70;;;;;;;;;;4974718;28;20394;-84
2022/04/05 09:17:10;;;;;;;7.22;1.45;;;;;;;;;;4974007;28;20035;-86
2022/04/05 09:19:46;;;;;;;7.13;1.40;;;;;;;;;;4983045;28;20146;-85
2022/04/05 09:22:30;;;;;;;7.63;1.20;;;;;;;;;;4974338;28;20034;-85
2022/04/05 09:25:05;;;;;;;6.95;1.73;;;;;;;;;;4964920;28;20600;-84
2022/04/05 09:27:44;;;;;;;7.53;1.10;;;;;;;;;;4974051;28;20037;-84
2022/04/05 09:30:14;;;;;;;6.47;1.23;;;;;;;;;;4974707;28;20060;-85
2022/04/05 09:32:42;;;;;;;6.22;1.40;;;;;;;;;;4975956;28;20094;-84
2022/04/05 09:35:07;;;;;;;6.57;1.20;;;;;;;;;;4976735;28;20041;-85
2022/04/05 09:37:38;;;;;;;5.20;1.27;;;;;;;;;;4960616;28;20042;-84
2022/04/05 09:40:32;;;;;;;8.60;1.33;;;;;;;;;;4975378;28;20073;-84
2022/04/05 09:43:09;;;;;;;6.72;1.20;;;;;;;;;;4973843;28;20506;-84
2022/04/05 09:45:44;;;;;;;5.40;0.95;;;;;;;;;;4975378;28;20066;-85
2022/04/05 09:48:10;;;;;;;6.45;1.23;;;;;;;;;;4958445;28;20050;-85
2022/04/05 09:51:04;;;;;;;5.70;1.35;;;;;;;;;;4960346;28;20043;-85
2022/04/05 09:53:38;;;;;;;5.97;1.45;;;;;;;;;;4954466;28;20490;-85
2022/04/05 09:56:13;;;;;;;5.28;1.38;;;;;;;;;;4967132;28;20043;-85
2022/04/05 09:58:45;;;;;;;8.05;1.23;;;;;;;;;;4975284;28;20034;-85
2022/04/05 10:01:11;;;;;;;5.13;1.00;;;;;;;;;;4947403;28;20042;-85
2022/04/05 10:03:42;;;;;;;6.20;1.52;;;;;;;;;;4977077;28;20818;-85
2022/04/05 10:06:08;;;;;;;6.68;1.02;;;;;;;;;;4972801;28;20710;-84
2022/04/05 10:08:35;;;;;;;5.85;1.33;;;;;;;;;;4981468;28;20039;-84
2022/04/05 10:11:01;;;;;;;6.13;1.20;;;;;;;;;;4973670;28;20132;-84
2022/04/05 10:13:30;;;;;;;9.32;1.20;;;;;;;;;;4977647;28;20034;-84
2022/04/05 10:15:56;;;;;;;7.80;1.20;;;;;;;;;;4979636;28;20071;-85
2022/04/05 10:18:24;;;;;;;5.47;1.30;;;;;;;;;;4966185;28;20058;-80
2022/04/05 10:20:50;;;;;;;7.45;1.15;;;;;;;;;;4979508;28;20046;-84
2022/04/05 10:23:20;;;;;;;7.78;1.17;;;;;;;;;;4981781;28;20038;-84
2022/04/05 10:25:52;;;;;;;6.07;1.25;;;;;;;;;;4974243;28;20038;-83
2022/04/05 10:28:28;;;;;;;9.05;1.15;;;;;;;;;;4976121;28;20050;-84
2022/04/05 10:31:20;;;;;;;5.55;1.25;;;;;;;;;;4981157;28;20040;-84
2022/04/05 10:34:16;;;;;;;5.55;1.48;;;;;;;;;;4964843;28;20041;-84
2022/04/05 10:37:08;;;;;;;6.47;1.20;;;;;;;;;;4973254;28;20096;-84
2022/04/05 10:39:33;;;;;;;6.55;1.30;;;;;;;;;;4961830;28;20581;-84
2022/04/05 10:42:11;;;;;;;6.05;1.30;;;;;;;;;;4971995;28;20038;-84
2022/04/05 10:44:38;;;;;;;6.00;1.02;;;;;;;;;;4973775;28;20030;-84
2022/04/05 10:47:09;;;;;;;6.25;0.93;;;;;;;;;;4973335;28;20046;-83
2022/04/05 10:49:36;;;;;;;6.65;1.10;;;;;;;;;;4975702;28;20093;-84
2022/04/05 10:52:11;;;;;;;6.53;1.30;;;;;;;;;;4972566;28;20078;-84
2022/04/05 10:54:39;;;;;;;5.10;0.98;;;;;;;;;;4974112;28;20846;-84
2022/04/05 10:57:26;;;;;;;6.38;1.10;;;;;;;;;;4974271;28;20045;-84
2022/04/05 11:00:02;;;;;;;5.82;0.80;;;;;;;;;;4955728;28;20097;-84
2022/04/05 11:02:33;;;;;;;6.63;1.35;;;;;;;;;;4974279;28;20062;-86
2022/04/05 11:05:01;;;;;;;6.50;1.13;;;;;;;;;;4975678;28;20526;-86
2022/04/05 11:07:26;;;;;;;5.75;1.10;;;;;;;;;;4976864;28;20522;-84
2022/04/05 11:09:59;;;;;;;5.82;1.30;;;;;;;;;;4979632;28;20039;-85
2022/04/05 11:12:27;;;;;;;7.53;1.10;;;;;;;;;;4973050;28;20105;-84
2022/04/05 11:14:58;;;;;;;6.03;1.10;;;;;;;;;;4972906;28;20035;-84
2022/04/05 11:17:26;;;;;;;5.35;1.10;;;;;;;;;;4973393;28;20039;-85
2022/04/05 11:19:53;;;;;;;7.13;0.82;;;;;;;;;;4977358;28;20039;-84
2022/04/05 11:22:22;;;;;;;5.80;1.20;;;;;;;;;;4973066;28;20033;-86
2022/04/05 11:24:49;;;;;;;4.68;1.00;;;;;;;;;;4978163;28;20053;-84
2022/04/05 11:27:45;;;;;;;5.15;0.85;;;;;;;;;;4976270;28;20047;-84
2022/04/05 11:30:28;;;;;;;5.88;0.80;;;;;;;;;;4957727;28;20418;-83
2022/04/05 11:33:09;;;;;;;5.40;0.90;;;;;;;;;;4955359;28;20039;-84
2022/04/05 11:35:37;;;;;;;8.23;1.10;;;;;;;;;;4956992;28;20094;-84
2022/04/05 11:38:03;;;;;;;5.05;1.10;;;;;;;;;;4979565;28;20303;-85
2022/04/05 11:40:30;;;;;;;6.95;1.10;;;;;;;;;;4973160;28;20843;-83
2022/04/05 11:43:01;;;;;;;7.47;1.50;;;;;;;;;;4972312;28;20493;-84
2022/04/05 11:45:28;;;;;;;5.43;1.33;;;;;;;;;;4971352;28;20038;-84
2022/04/05 11:47:54;;;;;;;6.20;1.30;;;;;;;;;;4975189;28;20093;-84
2022/04/05 11:50:20;;;;;;;6.88;1.48;;;;;;;;;;4982978;28;20034;-83
2022/04/05 11:52:46;;;;;;;5.95;1.10;;;;;;;;;;4976933;28;20047;-85
2022/04/05 11:58:05;;;;;;;4.90;1.30;;;;;;;;;;4955026;28;20070;-84
2022/04/05 12:00:30;;;;;;;6.70;1.33;;;;;;;;;;4955935;28;20062;-84
2022/04/05 12:03:05;;;;;;;7.53;1.58;;;;;;;;;;4963198;28;20078;-85
2022/04/05 12:05:59;;;;;;;5.97;1.17;;;;;;;;;;4960256;28;20037;-85
2022/04/05 12:08:24;;;;;;;4.65;1.10;;;;;;;;;;4941586;28;20356;-84
2022/04/05 12:10:50;;;;;;;7.20;1.30;;;;;;;;;;4956414;28;20102;-84
2022/04/05 12:13:26;;;;;;;5.85;1.05;;;;;;;;;;4959271;28;20109;-84
2022/04/05 12:16:00;;;;;;;8.32;1.25;;;;;;;;;;4964740;28;20038;-84
2022/04/05 12:18:28;;;;;;;5.50;1.20;;;;;;;;;;4976873;28;20026;-85
2022/04/05 12:21:01;;;;;;;6.25;1.20;;;;;;;;;;4974772;28;20441;-85
2022/04/05 12:23:37;;;;;;;5.38;1.35;;;;;;;;;;4992929;28;20061;-85
2022/04/05 12:26:09;;;;;;;7.40;1.45;;;;;;;;;;4975573;28;20637;-84
2022/04/05 12:28:48;;;;;;;8.02;1.50;;;;;;;;;;4977313;28;20038;-85
2022/04/05 12:31:28;;;;;;;5.28;1.00;;;;;;;;;;4965299;28;20478;-85
2022/04/05 12:34:00;;;;;;;6.63;1.10;;;;;;;;;;4957339;28;20038;-84
2022/04/05 12:36:34;;;;;;;6.90;1.20;;;;;;;;;;4962647;28;20092;-84
2022/04/05 12:39:01;;;;;;;4.95;1.08;;;;;;;;;;4955670;28;20038;-84
2022/04/05 12:41:26;;;;;;;5.28;1.10;;;;;;;;;;4968821;28;20647;-84
2022/04/05 12:44:13;;;;;;;8.93;1.25;;;;;;;;;;4960991;28;20039;-84
2022/04/05 12:46:53;;;;;;;4.45;1.13;;;;;;;;;;4981525;28;20053;-84
2022/04/05 12:49:20;;;;;;;7.07;1.50;;;;;;;;;;4981065;28;20121;-84
2022/04/05 12:51:46;;;;;;;4.37;1.40;;;;;;;;;;4973391;28;20038;-84
2022/04/05 12:54:32;;;;;;;5.70;1.00;;;;;;;;;;4974526;28;20490;-84
2022/04/05 12:57:32;;;;;;;5.90;1.02;;;;;;;;;;4975069;28;20498;-84
2022/04/05 13:00:20;;;;;;;6.72;1.20;;;;;;;;;;4975259;28;20056;-84
2022/04/05 13:02:51;;;;;;;5.60;1.20;;;;;;;;;;4963838;28;20038;-84
2022/04/05 13:08:02;;;;;;;4.38;1.02;;;;;;;;;;4977478;28;20139;-84
2022/04/05 13:10:36;;;;;;;4.10;1.10;;;;;;;;;;4974517;28;20046;-84
2022/04/05 13:13:21;;;;;;;5.43;1.00;;;;;;;;;;4973831;28;20121;-83
2022/04/05 13:16:02;;;;;;;5.45;1.00;;;;;;;;;;4974072;28;20077;-83
2022/04/05 13:18:43;;;;;;;8.52;1.50;;;;;;;;;;4975844;28;20038;-84
2022/04/05 13:21:18;;;;;;;7.10;1.33;;;;;;;;;;4974000;28;20085;-83
2022/04/05 13:24:03;;;;;;;8.68;1.38;;;;;;;;;;4974275;28;20046;-83
2022/04/05 13:26:29;;;;;;;7.65;1.88;;;;;;;;;;4978058;28;20035;-84
2022/04/05 13:29:07;;;;;;;6.25;1.20;;;;;;;;;;4976568;28;20035;-83
2022/04/05 13:31:34;;;;;;;4.90;1.00;;;;;;;;;;4967029;28;20043;-85
2022/04/05 13:34:00;;;;;;;5.07;1.25;;;;;;;;;;4982737;28;20134;-84
2022/04/05 13:36:26;;;;;;;6.68;1.20;;;;;;;;;;4974039;28;20397;-82
2022/04/05 13:38:51;;;;;;;5.50;1.30;;;;;;;;;;4974137;28;20034;-81
2022/04/05 13:41:17;;;;;;;6.13;1.02;;;;;;;;;;4981837;28;20034;-82
2022/04/05 13:43:42;;;;;;;5.47;1.30;;;;;;;;;;4978136;28;20134;-81
2022/04/05 13:46:08;;;;;;;6.28;1.10;;;;;;;;;;4973165;28;20030;-82
2022/04/05 13:48:34;;;;;;;5.60;1.35;;;;;;;;;;4975757;28;20041;-82
2022/04/05 13:50:59;;;;;;;6.45;1.15;;;;;;;;;;4975435;28;20041;-83
2022/04/05 13:53:24;;;;;;;5.18;1.02;;;;;;;;;;4958819;28;20023;-80
2022/04/05 13:55:50;;;;;;;3.80;0.93;;;;;;;;;;4974897;28;20091;-82
2022/04/05 13:58:18;;;;;;;5.60;1.30;;;;;;;;;;4975260;28;20109;-85
2022/04/05 14:04:36;;;;;;;5.63;1.20;;;;;;;;;;4953769;28;20084;-87
2022/04/05 14:07:02;;;;;;;7.50;1.55;;;;;;;;;;4959872;28;20510;-85
2022/04/05 14:09:28;;;;;;;5.80;1.25;;;;;;;;;;4959955;28;20122;-86
2022/04/05 14:11:53;;;;;;;5.93;1.30;;;;;;;;;;4969917;28;20038;-86
2022/04/05 14:14:19;;;;;;;5.00;1.15;;;;;;;;;;4975232;28;20046;-85
2022/04/05 14:16:44;;;;;;;9.00;2.17;;;;;;;;;;4975914;28;20144;-86
2022/04/05 14:19:09;;;;;;;5.65;1.40;;;;;;;;;;4974261;28;20030;-86
2022/04/05 14:21:35;;;;;;;6.45;1.70;;;;;;;;;;4973781;28;20121;-87
2022/04/05 14:24:03;;;;;;;6.68;1.70;;;;;;;;;;4974808;28;20045;-84
2022/04/05 14:26:28;;;;;;;8.30;1.63;;;;;;;;;;4974681;28;20031;-85
2022/04/05 14:28:56;;;;;;;6.88;1.48;;;;;;;;;;4973642;28;20034;-84
2022/04/05 14:31:21;;;;;;;5.28;1.48;;;;;;;;;;4974133;28;20098;-85
2022/04/05 14:33:47;;;;;;;5.50;1.60;;;;;;;;;;4973040;28;20505;-85
2022/04/05 14:36:12;;;;;;;5.93;1.77;;;;;;;;;;4974163;28;20034;-84
2022/04/05 14:38:38;;;;;;;6.43;1.30;;;;;;;;;;4970713;28;20034;-84
2022/04/05 14:41:05;;;;;;;5.85;1.50;;;;;;;;;;4976298;28;20161;-86
2022/04/05 14:43:30;;;;;;;5.03;1.50;;;;;;;;;;4980933;28;20038;-84
2022/04/05 14:45:55;;;;;;;6.60;1.80;;;;;;;;;;4964965;28;20034;-85
2022/04/05 14:48:21;;;;;;;4.93;1.63;;;;;;;;;;4974082;28;20058;-85
2022/04/05 14:50:47;;;;;;;7.82;1.88;;;;;;;;;;4973809;28;20467;-86
2022/04/05 14:53:13;;;;;;;6.13;2.10;;;;;;;;;;4965660;28;20577;-85
2022/04/05 14:55:38;;;;;;;6.50;1.90;;;;;;;;;;4959154;28;20055;-84